Polarstern — DBLK — position and weather

sailwx.info

Track history (hours):
 
Tides and Currents Weather Stations Pressure Air Temp Water Temp Dewpoint Dewpoint Depression Visibility Wind Speed Wind Dir Waves Ship Positions

Oceanographic research ship Polarstern (Germany)

Detailed information on ship capabilities available from University of Delaware's Ocean Information Center and ARCUS's ALIAS (Arctic Logistics Information and Support) project.

Last reported at 2019-Feb-20 06:00 UTC. Time now 2019-Feb-20 07:04 UTC.
Position S 57°42' W 062°00'.

Length 117.9 m; beam 25 m; draft 10.7 m.

Type: Other ship. MMSI: 211202460.

Wind from 100 at 51 knots

Barometer 978.3 mb
Air temperature 1.2 ° C
Dewpoint 1.2 ° C
Water temperature 5.8 ° C

Date/timePositionNaut miles runAvg speedWind from/ knotsBaromVisibWave heightAir tempDewpointWater temp
2019-Feb-20 06:00S 57°42' W 062°00'7 6.8 100 / 51978.3 1.2 1.2 5.8
2019-Feb-20 05:00S 57°36' W 062°06'9 8.8 100 / 51977.3 2.0 1.6 6.1
2019-Feb-20 04:00S 57°30' W 062°18'7 6.8 090 / 49976.7 2.2 1.9 6.0
2019-Feb-20 03:00S 57°24' W 062°24'1413.6 090 / 47977.4 3.3 2.8 6.0
2019-Feb-20 02:00S 57°12' W 062°36'7 6.8 090 / 49977.2 3.1 2.6 6.1
2019-Feb-20 01:00S 57°06' W 062°42'9 8.9 090 / 47977.6 4.0 3.4 6.1
2019-Feb-20 00:00S 57°00' W 062°54'1413.7 080 / 43977.7 5.1 4.8 6.1
2019-Feb-19 23:00S 56°48' W 063°06'1413.7 080 / 37977.8 5.7 4.8 6.1
2019-Feb-19 22:00S 56°36' W 063°18'9 8.9 070 / 37978.3 5.6 4.9 5.7
2019-Feb-19 21:00S 56°30' W 063°30'1413.7 070 / 33979.4 2.2 5.6 4.8 5.5
2019-Feb-19 20:00S 56°18' W 063°42'1212.5 060 / 31980.6 5.8 5.2 5.4
2019-Feb-19 19:00S 56°06' W 063°48'1413.7 060 / 29981.5 5.8 4.8 5.8
2019-Feb-19 18:00S 55°54' W 064°00'1413.8 060 / 27983.0 5.4 6.1 5.5 5.9
2019-Feb-19 17:00S 55°42' W 064°12'7 6.9 050 / 27984.2 6.4 5.5 5.8
2019-Feb-19 16:00S 55°36' W 064°18'7 6.9 040 / 23985.4 6.3 5.1 5.9
2019-Feb-19 15:00S 55°30' W 064°24'7 6.9 050 / 27986.5 5.4 6.0 5.0 5.9
2019-Feb-19 14:00S 55°24' W 064°30'1211.9 040 / 27987.0 6.7 5.4 5.9
2019-Feb-19 13:00S 55°18' W 064°48'1413.8 040 / 25988.5 6.6 4.8 6.1
2019-Feb-19 12:00S 55°06' W 065°00'6 6.0 030 / 25989.1 5.4 7.1 4.4 6.2
2019-Feb-19 11:00S 55°00' W 065°00'1818.3 030 / 19990.8 7.2 5.2 9.1
2019-Feb-19 10:00S 54°42' W 064°54'1212.0 020 / 12992.4 7.2 5.4 9.1
2019-Feb-19 09:00S 54°30' W 064°54'9 9.2 330 / 17994.2 5.4 7.1 4.6 9.2
2019-Feb-19 08:00S 54°24' W 065°06'1212.1 350 / 17994.8 8.0 3.4 9.2
2019-Feb-19 07:00S 54°18' W 065°24'1413.9 340 / 17995.6 8.0 2.5 9.2
2019-Feb-19 06:00S 54°06' W 065°36'9 9.3 030 / 17996.2 8.0 5.4 9.2
2019-Feb-19 05:00S 54°00' W 065°48'1212.2 360 / 10997.3 8.9 2.9 9.2
2019-Feb-19 04:00S 53°54' W 066°06'1616.0 260 / 6998.1 9.4 0.6 9.3
2019-Feb-19 03:00S 53°42' W 066°24'9 9.3 260 / 10998.7 9.6 0.1 9.5
2019-Feb-19 02:00S 53°36' W 066°36'1616.1 260 / 12998.7 9.9 1.0 9.9
2019-Feb-19 01:00S 53°24' W 066°54'9 9.3 270 / 19998.9 10.3 0.9 9.9
2019-Feb-19 00:00S 53°18' W 067°06'1616.1 280 / 21999.0 10.3 1.710.1
2019-Feb-18 23:00S 53°06' W 067°24'9 9.4 260 / 17998.9 10.4 1.010.1
2019-Feb-18 22:00S 53°00' W 067°36'1616.2 270 / 4999.4 10.0 4.0 9.5
2019-Feb-18 21:00S 52°48' W 067°54'9 9.4 280 / 23999.527.0 10.7 0.7 9.1
2019-Feb-18 20:00S 52°42' W 068°06'1212.5 270 / 211000.1 10.8-1.4 9.6
2019-Feb-18 19:00S 52°36' W 068°24'9 9.4 280 / 231000.8 10.3 0.3 9.7
2019-Feb-18 18:00S 52°30' W 068°36'1312.5 260 / 191001.427.0 9.6 0.710.2
2019-Feb-18 17:00S 52°24' W 068°54'1514.6 250 / 171001.4 9.5-0.610.6
2019-Feb-18 16:00S 52°24' W 069°18'9 9.5 230 / 161001.4 8.8 0.910.3
2019-Feb-18 15:00S 52°30' W 069°30'9 9.4 240 / 231001.327.0 8.6-1.710.4
2019-Feb-18 14:00S 52°36' W 069°42'1212.5 260 / 211000.7 7.7 2.510.0
2019-Feb-18 13:00S 52°42' W 070°00'1110.9 260 / 191000.4 6.7 2.6 9.4
2019-Feb-18 12:00S 52°42' W 070°18'1414.0 260 / 231000.227.0 6.8 1.9 9.2
2019-Feb-18 11:00S 52°54' W 070°30'1414.0 270 / 19998.9 6.7 3.2 9.1
2019-Feb-18 10:00S 53°06' W 070°42'7 7.2 270 / 21998.9 5.9 2.0 9.0
2019-Feb-18 09:00S 53°06' W 070°54'0 0.0 280 / 12997.927.0 5.4 0.7 9.2
2019-Feb-18 08:00S 53°06' W 070°54'0 0.0 150 / 4997.7 6.0 0.7 9.2
2019-Feb-18 07:00S 53°06' W 070°54'0 0.0 230 / 10997.3 6.7-1.0 9.2
2019-Feb-18 06:00S 53°06' W 070°54'0 0.0 280 / 8997.1 6.2 0.1 9.2
2019-Feb-18 05:00S 53°06' W 070°54'0 0.0 290 / 4997.1 6.0 0.4 9.2
2019-Feb-18 04:00S 53°06' W 070°54'0 0.0 260 / 6996.9 6.3 0.5 9.2
2019-Feb-18 03:00S 53°06' W 070°54'0 0.0 210 / 6997.0 6.2 1.1 9.2
2019-Feb-18 02:00S 53°06' W 070°54'0 0.0 290 / 8996.6 6.6 1.5 9.2
2019-Feb-18 01:00S 53°06' W 070°54'0 0.0 260 / 10996.5 6.9 0.5 9.1
2019-Feb-18 00:00S 53°06' W 070°54'0 0.0 290 / 6996.0 8.1 0.7 9.0
2019-Feb-17 23:00S 53°06' W 070°54'0 0.0 300 / 14996.2 7.2 1.5 9.1
2019-Feb-17 22:00S 53°06' W 070°54'0 0.0 300 / 8995.7 9.0 1.4 9.1
2019-Feb-17 21:00S 53°06' W 070°54'0 0.0 290 / 8995.8 9.0 0.7 9.2
2019-Feb-17 20:00S 53°06' W 070°54'0 0.0 320 / 12995.7 9.8-0.5 9.2
2019-Feb-17 19:00S 53°06' W 070°54'0 0.0 290 / 10996.5 10.0-0.8 9.2
2019-Feb-17 18:00S 53°06' W 070°54'0 0.0 290 / 12996.6 9.9-1.5 9.1
2019-Feb-17 17:00S 53°06' W 070°54'0 0.0 280 / 19996.6 9.8-3.2 9.1
2019-Feb-17 16:00S 53°06' W 070°54'0 0.0 280 / 16997.4 9.6-1.6 9.1
2019-Feb-17 15:00S 53°06' W 070°54'0 0.0 280 / 10997.2 9.4-2.3 9.1
2019-Feb-17 14:00S 53°06' W 070°54'0 0.0 260 / 4997.3 9.3-2.1 9.2
2019-Feb-17 13:00S 53°06' W 070°54'0 0.0 260 / 8997.0 8.4-1.7 9.2
2019-Feb-17 12:00S 53°06' W 070°54'0 0.0 270 / 8997.3 8.1-1.5 9.1
2019-Feb-17 11:00S 53°06' W 070°54'4 3.6 200 / 16996.9 8.3-1.5 9.0
2019-Feb-17 10:00S 53°06' W 070°48'7 7.0 200 / 12996.7 8.7 1.9 9.0
2019-Feb-17 09:00S 53°00' W 070°42'7 7.0 250 / 19995.7 8.6 5.0 9.1
2019-Feb-17 08:00S 52°54' W 070°48'0 0.0 300 / 29994.6 9.9 6.5 9.5
2019-Feb-17 07:00S 52°54' W 070°48'0 0.0 310 / 25993.8 9.6 6.6 9.5
2019-Feb-17 06:00S 52°54' W 070°48'0 0.0 320 / 21994.2 9.4 7.2 9.4
2019-Feb-17 05:00S 52°54' W 070°48'0 0.0 320 / 16994.6 8.6 7.0 9.6
2019-Feb-17 04:00S 52°54' W 070°48'0 0.0 330 / 14995.5 8.7 6.9 9.6
2019-Feb-17 03:00S 52°54' W 070°48'0 0.0 340 / 14995.9 8.7 7.0 9.6
2019-Feb-17 02:00S 52°54' W 070°48'0 0.0 320 / 14996.3 9.1 6.1 9.4
2019-Feb-17 01:00S 52°54' W 070°48'0 0.0 340 / 10996.4 10.8 3.0 9.3
2019-Feb-17 00:00S 52°54' W 070°48'0 0.0 280 / 10996.6 12.7 2.5 9.2
2019-Feb-16 23:00S 52°54' W 070°48'0 0.0 260 / 14997.2 11.9 1.6 9.3
2019-Feb-16 22:00S 52°54' W 070°48'0 0.0 250 / 17997.2 12.3 0.6 9.4
2019-Feb-16 21:00S 52°54' W 070°48'0 0.0 250 / 23998.0 12.6 0.4 9.5
2019-Feb-16 20:00S 52°54' W 070°48'0 0.0 240 / 27998.4 12.3-0.3 9.6
2019-Feb-16 19:00S 52°54' W 070°48'0 0.0 250 / 31998.7 12.5 0.1 9.7
2019-Feb-16 18:00S 52°54' W 070°48'0 0.0 260 / 33998.2 13.6-0.0 9.6
2019-Feb-16 17:00S 52°54' W 070°48'0 0.0 260 / 31998.1 12.9 1.3 9.5
2019-Feb-16 16:00S 52°54' W 070°48'0 0.0 270 / 33998.0 12.4 1.1 9.5
2019-Feb-16 15:00S 52°54' W 070°48'0 0.0 260 / 39996.5 12.5 0.9 9.6
2019-Feb-16 14:00S 52°54' W 070°48'0 0.0 260 / 41995.4 12.4 1.5 9.5
2019-Feb-16 13:00S 52°54' W 070°48'0 0.0 260 / 43994.9 11.4 3.5 9.5
2019-Feb-16 12:00S 52°54' W 070°48'0 0.0 270 / 37994.3 12.6 0.7 9.6
2019-Feb-16 11:00S 52°54' W 070°48'0 0.0 270 / 33993.6 12.1 3.2 9.4
2019-Feb-16 10:00S 52°54' W 070°48'0 0.0 280 / 31992.4 11.6 3.4 9.5
2019-Feb-16 09:00S 52°54' W 070°48'0 0.0 260 / 29992.0 9.8 4.8 9.7
2019-Feb-16 08:00S 52°54' W 070°48'0 0.0 270 / 37990.3 12.9 2.6 9.6
2019-Feb-16 07:00S 52°54' W 070°48'0 0.0 270 / 37989.5 12.5 2.1 9.8
2019-Feb-16 06:00S 52°54' W 070°48'0 0.0 270 / 45989.1 15.1 2.110.0
2019-Feb-16 05:00S 52°54' W 070°48'0 0.0 260 / 37988.7 13.4 3.610.1
2019-Feb-16 04:00S 52°54' W 070°48'0 0.0 270 / 47987.5 15.9 9.210.0
2019-Feb-16 03:00S 52°54' W 070°48'0 0.0 270 / 27987.2 14.510.910.1
2019-Feb-16 02:00S 52°54' W 070°48'0 0.0 280 / 31987.8 18.610.8 9.9
2019-Feb-16 01:00S 52°54' W 070°48'0 0.0 300 / 35988.5 17.5 9.8 9.9
2019-Feb-16 00:00S 52°54' W 070°48'0 0.0 300 / 33988.4 17.8 9.6 9.7
2019-Feb-15 23:00S 52°54' W 070°48'0 0.0 300 / 47987.8 17.910.1 9.6
2019-Feb-15 22:00S 52°54' W 070°48'0 0.0 300 / 54989.3 18.410.2 9.6
2019-Feb-15 21:00S 52°54' W 070°48'0 0.0 300 / 52989.6 18.310.3 9.6
2019-Feb-15 20:00S 52°54' W 070°48'0 0.0 300 / 52990.8 18.210.3 9.6
2019-Feb-15 19:00S 52°54' W 070°48'0 0.0 290 / 31991.9 18.210.9 9.5
2019-Feb-15 18:00S 52°54' W 070°48'0 0.0 300 / 35993.4 18.511.0 9.5
2019-Feb-15 17:00S 52°54' W 070°48'0 0.0 280 / 21995.0 17.011.0 9.4
2019-Feb-15 16:00S 52°54' W 070°48'1212.0 060 / 8996.6 10.8 9.5 9.4
2019-Feb-15 15:00S 53°06' W 070°48'4 3.6 030 / 14998.0 9.2 8.7 9.2
2019-Feb-15 14:00S 53°06' W 070°54'0 0.0 360 / 121000.1 8.7 6.6 9.3
2019-Feb-15 13:00S 53°06' W 070°54'0 0.0 360 / 141000.2 9.9 5.8 9.4
2019-Feb-15 12:00S 53°06' W 070°54'0 0.0 030 / 61000.7 10.5 5.4 9.4
2019-Feb-15 11:00S 53°06' W 070°54'0 0.0 290 / 61002.0 11.2 3.6 9.3
2019-Feb-15 10:00S 53°06' W 070°54'0 0.0 250 / 61002.4 11.5 1.6 9.3
2019-Feb-15 09:00S 53°06' W 070°54'0 0.0 050 / 41002.5 11.2 1.1 9.3
2019-Feb-15 08:00S 53°06' W 070°54'0 0.0 080 / 41002.9 11.0 1.6 9.3
2019-Feb-15 07:00S 53°06' W 070°54'0 0.0 040 / 81003.1 10.4 2.4 9.3
2019-Feb-15 06:00S 53°06' W 070°54'0 0.0 010 / 61003.7 10.6 1.7 9.3
2019-Feb-15 05:00S 53°06' W 070°54'0 0.0 050 / 81003.8 10.4 2.2 9.3
2019-Feb-15 04:00S 53°06' W 070°54'0 0.0 1003.8 10.3 1.4 9.4
2019-Feb-15 03:00S 53°06' W 070°54'0 0.0 260 / 81003.7 10.4 0.9 9.4
2019-Feb-15 02:00S 53°06' W 070°54'0 0.0 250 / 191002.8 10.6 0.6 9.2
2019-Feb-15 01:00S 53°06' W 070°54'0 0.0 260 / 251002.2 10.8 1.5 9.2
2019-Feb-15 00:00S 53°06' W 070°54'0 0.0 260 / 311001.1 11.2 1.8 9.2
2019-Feb-14 23:00S 53°06' W 070°54'0 0.0 260 / 311000.4 12.0 0.7 9.2
2019-Feb-14 22:00S 53°06' W 070°54'0 0.0 260 / 33999.5 12.3 0.9 9.2
2019-Feb-14 21:00S 53°06' W 070°54'0 0.0 260 / 39998.1 12.3 1.8 9.2
2019-Feb-14 20:00S 53°06' W 070°54'0 0.0 260 / 43997.5 12.6 2.4 9.3
2019-Feb-14 19:00S 53°06' W 070°54'0 0.0 270 / 33997.0 13.2 3.2 9.3
2019-Feb-14 18:00S 53°06' W 070°54'0 0.0 280 / 31997.0 12.7 3.1 9.3
2019-Feb-14 17:00S 53°06' W 070°54'0 0.0 280 / 31996.2 12.7 3.4 9.3
2019-Feb-14 16:00S 53°06' W 070°54'0 0.0 280 / 35995.6 12.2 3.9 9.3
2019-Feb-14 15:00S 53°06' W 070°54'0 0.0 270 / 31994.8 11.8 5.3 9.4
2019-Feb-14 14:00S 53°06' W 070°54'0 0.0 280 / 29994.1 12.0 7.9 9.3
2019-Feb-14 13:00S 53°06' W 070°54'0 0.0 290 / 33993.0 13.1 7.3 9.3
2019-Feb-14 12:00S 53°06' W 070°54'0 0.0 290 / 29992.9 12.8 7.5 9.2
2019-Feb-14 11:00S 53°06' W 070°54'0 0.0 280 / 19992.9 12.8 6.9 9.2
2019-Feb-14 10:00S 53°06' W 070°54'6 6.0 280 / 10993.4 12.6 5.2 9.1
2019-Feb-14 09:00S 53°12' W 070°54'0 0.0 270 / 23993.6 12.6 5.9 9.2
2019-Feb-14 08:00S 53°12' W 070°54'0 0.0 260 / 27994.1 12.3 6.8 9.1
2019-Feb-14 07:00S 53°12' W 070°54'0 0.0 270 / 21994.5 12.8 7.0 9.2
2019-Feb-14 06:00S 53°12' W 070°54'0 0.0 270 / 21995.0 12.9 6.4 9.2
2019-Feb-14 05:00S 53°12' W 070°54'0 0.0 280 / 12995.4 12.7 5.9 9.2
2019-Feb-14 04:00S 53°12' W 070°54'0 0.0 260 / 17996.1 12.8 5.7 9.2
2019-Feb-14 03:00S 53°12' W 070°54'0 0.0 260 / 23997.1 13.2 5.0 9.2
2019-Feb-14 02:00S 53°12' W 070°54'0 0.0 270 / 33996.9 13.3 5.5 9.2
2019-Feb-14 01:00S 53°12' W 070°54'0 0.0 270 / 23997.4 15.2 5.3 9.2
2019-Feb-14 00:00S 53°12' W 070°54'0 0.0 260 / 19997.5 15.3 4.9 9.3
2019-Feb-13 23:00S 53°12' W 070°54'0 0.0 290 / 12998.0 16.1 5.4 9.3
2019-Feb-13 22:00S 53°12' W 070°54'0 0.0 270 / 23998.6 16.6 3.3 9.2
2019-Feb-13 21:00S 53°12' W 070°54'0 0.0 300 / 21999.3 16.1 5.4 9.3
2019-Feb-13 20:00S 53°12' W 070°54'0 0.0 300 / 161000.0 15.7 6.1 9.2
2019-Feb-13 19:00S 53°12' W 070°54'0 0.0 310 / 171000.7 15.2 6.2 9.2
2019-Feb-13 18:00S 53°12' W 070°54'0 0.0 310 / 191001.6 15.2 5.9 9.2
2019-Feb-13 17:00S 53°12' W 070°54'0 0.0 300 / 161002.6 14.6 5.5 9.2
2019-Feb-13 16:00S 53°12' W 070°54'0 0.0 300 / 231003.2 14.8 5.8 9.2
2019-Feb-13 15:00S 53°12' W 070°54'0 0.0 320 / 211003.7 14.2 5.7 9.2
2019-Feb-13 14:00S 53°12' W 070°54'0 0.0 290 / 161004.9 13.0 5.9 9.1
2019-Feb-13 13:00S 53°12' W 070°54'0 0.0 280 / 161005.8 12.0 5.5 9.1
2019-Feb-13 12:00S 53°12' W 070°54'0 0.0 330 / 81006.3 11.7 5.7 9.1
2019-Feb-13 11:00S 53°12' W 070°54'0 0.0 360 / 81006.9 10.1 4.9 9.1
2019-Feb-13 10:00S 53°12' W 070°54'0 0.0 300 / 141007.4 10.4 4.3 9.1
2019-Feb-13 09:00S 53°12' W 070°54'0 0.0 280 / 41008.0 10.4 3.8 9.1
2019-Feb-13 08:00S 53°12' W 070°54'6 6.0 270 / 81008.5 10.1 3.8 9.0
2019-Feb-13 07:00S 53°06' W 070°54'0 0.0 340 / 41009.2 9.5 2.2 9.3
2019-Feb-13 06:00S 53°06' W 070°54'0 0.0 220 / 101009.4 8.7 1.1 9.3
2019-Feb-13 05:00S 53°06' W 070°54'0 0.0 220 / 101009.9 9.2 0.7 9.3
2019-Feb-13 04:00S 53°06' W 070°54'0 0.0 230 / 101010.0 9.6 0.6 9.4
2019-Feb-13 03:00S 53°06' W 070°54'0 0.0 280 / 121009.7 8.7 1.1 9.4
2019-Feb-13 02:00S 53°06' W 070°54'0 0.0 260 / 81009.8 10.0 2.0 9.4
2019-Feb-13 01:00S 53°06' W 070°54'0 0.0 240 / 101009.2 11.5 2.3 9.5
2019-Feb-13 00:00S 53°06' W 070°54'0 0.0 230 / 191008.1 12.8 2.9 9.5
2019-Feb-12 23:00S 53°06' W 070°54'0 0.0 220 / 121008.0 13.7 4.6 9.5
2019-Feb-12 22:00S 53°06' W 070°54'0 0.0 250 / 141006.7 15.0 6.5 9.4
2019-Feb-12 21:00S 53°06' W 070°54'0 0.0 260 / 191005.3 16.0 6.7 9.4
2019-Feb-12 20:00S 53°06' W 070°54'0 0.0 260 / 291004.3 16.0 6.6 9.4
2019-Feb-12 19:00S 53°06' W 070°54'0 0.0 260 / 251004.9 15.3 6.4 9.4
2019-Feb-12 18:00S 53°06' W 070°54'0 0.0 270 / 251004.9 15.0 6.9 9.3
2019-Feb-12 17:00S 53°06' W 070°54'0 0.0 280 / 251005.5 14.2 6.1 9.4
2019-Feb-12 16:00S 53°06' W 070°54'0 0.0 270 / 141005.6 14.9 5.9 9.3
2019-Feb-12 15:00S 53°06' W 070°54'0 0.0 290 / 121005.5 12.1 5.7 9.3
2019-Feb-12 14:00S 53°06' W 070°54'0 0.0 310 / 171006.1 11.5 4.5 9.3
2019-Feb-12 13:00S 53°06' W 070°54'0 0.0 310 / 211006.4 11.5 3.9 9.3
2019-Feb-12 12:00S 53°06' W 070°54'0 0.0 360 / 81007.1 10.9 3.7 9.4
2019-Feb-12 11:00S 53°06' W 070°54'0 0.0 330 / 81008.6 10.8 3.4 9.3
2019-Feb-12 10:00S 53°06' W 070°54'6 6.0 320 / 161009.7 9.5 5.3 9.2
2019-Feb-12 09:00S 53°12' W 070°54'0 0.0 320 / 141011.3 10.3 3.4 9.2
2019-Feb-12 08:00S 53°12' W 070°54'0 0.0 300 / 171012.5 10.2 3.7 9.1
2019-Feb-12 07:00S 53°12' W 070°54'0 0.0 270 / 101013.6 10.1 3.7 9.1
2019-Feb-12 06:00S 53°12' W 070°54'0 0.0 270 / 161014.5 10.2 3.7 9.2
2019-Feb-12 05:00S 53°12' W 070°54'0 0.0 270 / 191015.4 10.5 3.5 9.2
2019-Feb-12 04:00S 53°12' W 070°54'0 0.0 270 / 171016.1 10.4 3.3 9.2
2019-Feb-12 03:00S 53°12' W 070°54'0 0.0 250 / 141017.0 10.9 2.2 9.2
2019-Feb-12 02:00S 53°12' W 070°54'0 0.0 240 / 231018.1 10.8 2.7 9.2
2019-Feb-12 01:00S 53°12' W 070°54'0 0.0 250 / 191018.8 10.7 3.3 9.2
2019-Feb-12 00:00S 53°12' W 070°54'0 0.0 250 / 171019.0 10.7 2.6 9.3
2019-Feb-11 23:00S 53°12' W 070°54'0 0.0 270 / 171019.3 10.7 2.8 9.3
2019-Feb-11 22:00S 53°12' W 070°54'0 0.0 270 / 211019.4 11.0 3.0 9.3
2019-Feb-11 21:00S 53°12' W 070°54'0 0.0 270 / 171019.7 11.4 2.7 9.3
2019-Feb-11 20:00S 53°12' W 070°54'0 0.0 270 / 141019.7 11.2 2.2 9.3
2019-Feb-11 19:00S 53°12' W 070°54'0 0.0 270 / 101020.1 10.6 1.5 9.3
2019-Feb-11 18:00S 53°12' W 070°54'0 0.0 260 / 101020.6 9.6 0.8 9.3
2019-Feb-11 17:00S 53°12' W 070°54'0 0.0 240 / 161020.9 9.1 0.4 9.3
2019-Feb-11 16:00S 53°12' W 070°54'0 0.0 280 / 81021.4 9.3 0.9 9.3
2019-Feb-11 15:00S 53°12' W 070°54'0 0.0 260 / 81022.1 8.8 1.0 9.3
2019-Feb-11 14:00S 53°12' W 070°54'0 0.0 260 / 161021.8 8.2 0.3 9.3
2019-Feb-11 13:00S 53°12' W 070°54'0 0.0 260 / 81021.5 8.0 0.3 9.3
2019-Feb-11 12:00S 53°12' W 070°54'0 0.0 240 / 121021.6 7.5 0.3 9.2
2019-Feb-11 11:00S 53°12' W 070°54'0 0.0 220 / 121021.1 7.4-0.1 9.2
2019-Feb-11 10:00S 53°12' W 070°54'6 6.0 250 / 41020.3 7.1-0.0 9.2
2019-Feb-11 09:00S 53°06' W 070°54'0 0.0 260 / 81020.5 6.5-0.3 9.2
2019-Feb-11 08:00S 53°06' W 070°54'0 0.0 250 / 121020.4 6.5-0.3 9.2
2019-Feb-11 07:00S 53°06' W 070°54'0 0.0 210 / 41019.9 5.9-0.8 9.2
2019-Feb-11 06:00S 53°06' W 070°54'0 0.0 280 / 41019.5 5.7-1.1 9.2
2019-Feb-11 05:00S 53°06' W 070°54'0 0.0 230 / 61018.9 6.3-0.9 9.2
2019-Feb-11 04:00S 53°06' W 070°54'0 0.0 260 / 81018.7 6.1-0.9 9.2
2019-Feb-11 03:00S 53°06' W 070°54'0 0.0 250 / 21018.1 6.6-0.6 9.2
2019-Feb-11 02:00S 53°06' W 070°54'0 0.0 260 / 81017.1 6.7-1.4 9.2
2019-Feb-11 01:00S 53°06' W 070°54'0 0.0 200 / 121016.0 7.8-0.8 9.2
2019-Feb-11 00:00S 53°06' W 070°54'0 0.0 210 / 211014.5 8.4-0.9 9.3
2019-Feb-10 23:00S 53°06' W 070°54'0 0.0 220 / 161013.5 9.6-1.6 9.3
2019-Feb-10 22:00S 53°06' W 070°54'0 0.0 210 / 211012.2 9.7-1.8 9.3
2019-Feb-10 21:00S 53°06' W 070°54'7 7.0 190 / 211010.9 9.5-1.4 9.2
2019-Feb-10 20:00S 53°12' W 070°48'4 3.6 200 / 211009.8 8.6 0.5 9.2
2019-Feb-10 19:00S 53°12' W 070°54'0 0.0 190 / 211008.8 8.8 0.3 9.1
2019-Feb-10 18:00S 53°12' W 070°54'0 0.0 190 / 271007.1 8.3-1.0 9.0
2019-Feb-10 17:00S 53°12' W 070°54'0 0.0 180 / 251006.6 7.9-2.2 9.0
2019-Feb-10 16:00S 53°12' W 070°54'0 0.0 200 / 271005.6 7.5-2.3 8.9
2019-Feb-10 15:00S 53°12' W 070°54'0 0.0 200 / 211004.9 7.0-0.8 9.0
2019-Feb-10 14:00S 53°12' W 070°54'0 0.0 220 / 271003.5 7.2-1.2 8.9
2019-Feb-10 13:00S 53°12' W 070°54'0 0.0 220 / 291002.2 6.8 0.2 8.9
2019-Feb-10 12:00S 53°12' W 070°54'0 0.0 220 / 211000.4 7.4 2.3 8.9
2019-Feb-10 11:00S 53°12' W 070°54'0 0.0 230 / 12999.2 7.6 3.2 8.9
2019-Feb-10 10:00S 53°12' W 070°54'0 0.0 270 / 16997.7 7.6 2.7 8.9
2019-Feb-10 09:00S 53°12' W 070°54'0 0.0 240 / 10996.5 8.0 1.6 9.0
2019-Feb-10 08:00S 53°12' W 070°54'0 0.0 270 / 8995.8 7.8 1.9 9.0
2019-Feb-10 07:00S 53°12' W 070°54'0 0.0 240 / 14995.0 7.9 1.3 9.0
2019-Feb-10 06:00S 53°12' W 070°54'   250 / 12994.3 7.5 1.6 9.1
Track history (hours):
 
Tides and Currents Weather Stations Pressure Air Temp Water Temp Dewpoint Dewpoint Depression Visibility Wind Speed Wind Dir Waves Ship Positions

Oceanographic research ship Polarstern (Germany)

Detailed information on ship capabilities available from University of Delaware's Ocean Information Center and ARCUS's ALIAS (Arctic Logistics Information and Support) project.

Last reported at 2019-Feb-20 06:00 UTC. Time now 2019-Feb-20 07:04 UTC.
Position S 57°42' W 062°00'.

Length 117.9 m; beam 25 m; draft 10.7 m.

Type: Other ship. MMSI: 211202460.

Wind from 100 at 51 knots

Barometer 978.3 mb
Air temperature 1.2 ° C
Dewpoint 1.2 ° C
Water temperature 5.8 ° C

Date/timePositionNaut miles runAvg speedWind from/ knotsBaromVisibWave heightAir tempDewpointWater temp
2019-Feb-20 06:00S 57°42' W 062°00'7 6.8 100 / 51978.3 1.2 1.2 5.8
2019-Feb-20 05:00S 57°36' W 062°06'9 8.8 100 / 51977.3 2.0 1.6 6.1
2019-Feb-20 04:00S 57°30' W 062°18'7 6.8 090 / 49976.7 2.2 1.9 6.0
2019-Feb-20 03:00S 57°24' W 062°24'1413.6 090 / 47977.4 3.3 2.8 6.0
2019-Feb-20 02:00S 57°12' W 062°36'7 6.8 090 / 49977.2 3.1 2.6 6.1
2019-Feb-20 01:00S 57°06' W 062°42'9 8.9 090 / 47977.6 4.0 3.4 6.1
2019-Feb-20 00:00S 57°00' W 062°54'1413.7 080 / 43977.7 5.1 4.8 6.1
2019-Feb-19 23:00S 56°48' W 063°06'1413.7 080 / 37977.8 5.7 4.8 6.1
2019-Feb-19 22:00S 56°36' W 063°18'9 8.9 070 / 37978.3 5.6 4.9 5.7
2019-Feb-19 21:00S 56°30' W 063°30'1413.7 070 / 33979.4 2.2 5.6 4.8 5.5
2019-Feb-19 20:00S 56°18' W 063°42'1212.5 060 / 31980.6 5.8 5.2 5.4
2019-Feb-19 19:00S 56°06' W 063°48'1413.7 060 / 29981.5 5.8 4.8 5.8
2019-Feb-19 18:00S 55°54' W 064°00'1413.8 060 / 27983.0 5.4 6.1 5.5 5.9
2019-Feb-19 17:00S 55°42' W 064°12'7 6.9 050 / 27984.2 6.4 5.5 5.8
2019-Feb-19 16:00S 55°36' W 064°18'7 6.9 040 / 23985.4 6.3 5.1 5.9
2019-Feb-19 15:00S 55°30' W 064°24'7 6.9 050 / 27986.5 5.4 6.0 5.0 5.9
2019-Feb-19 14:00S 55°24' W 064°30'1211.9 040 / 27987.0 6.7 5.4 5.9
2019-Feb-19 13:00S 55°18' W 064°48'1413.8 040 / 25988.5 6.6 4.8 6.1
2019-Feb-19 12:00S 55°06' W 065°00'6 6.0 030 / 25989.1 5.4 7.1 4.4 6.2
2019-Feb-19 11:00S 55°00' W 065°00'1818.3 030 / 19990.8 7.2 5.2 9.1
2019-Feb-19 10:00S 54°42' W 064°54'1212.0 020 / 12992.4 7.2 5.4 9.1
2019-Feb-19 09:00S 54°30' W 064°54'9 9.2 330 / 17994.2 5.4 7.1 4.6 9.2
2019-Feb-19 08:00S 54°24' W 065°06'1212.1 350 / 17994.8 8.0 3.4 9.2
2019-Feb-19 07:00S 54°18' W 065°24'1413.9 340 / 17995.6 8.0 2.5 9.2
2019-Feb-19 06:00S 54°06' W 065°36'9 9.3 030 / 17996.2 8.0 5.4 9.2
2019-Feb-19 05:00S 54°00' W 065°48'1212.2 360 / 10997.3 8.9 2.9 9.2
2019-Feb-19 04:00S 53°54' W 066°06'1616.0 260 / 6998.1 9.4 0.6 9.3
2019-Feb-19 03:00S 53°42' W 066°24'9 9.3 260 / 10998.7 9.6 0.1 9.5
2019-Feb-19 02:00S 53°36' W 066°36'1616.1 260 / 12998.7 9.9 1.0 9.9
2019-Feb-19 01:00S 53°24' W 066°54'9 9.3 270 / 19998.9 10.3 0.9 9.9
2019-Feb-19 00:00S 53°18' W 067°06'1616.1 280 / 21999.0 10.3 1.710.1
2019-Feb-18 23:00S 53°06' W 067°24'9 9.4 260 / 17998.9 10.4 1.010.1
2019-Feb-18 22:00S 53°00' W 067°36'1616.2 270 / 4999.4 10.0 4.0 9.5
2019-Feb-18 21:00S 52°48' W 067°54'9 9.4 280 / 23999.527.0 10.7 0.7 9.1
2019-Feb-18 20:00S 52°42' W 068°06'1212.5 270 / 211000.1 10.8-1.4 9.6
2019-Feb-18 19:00S 52°36' W 068°24'9 9.4 280 / 231000.8 10.3 0.3 9.7
2019-Feb-18 18:00S 52°30' W 068°36'1312.5 260 / 191001.427.0 9.6 0.710.2
2019-Feb-18 17:00S 52°24' W 068°54'1514.6 250 / 171001.4 9.5-0.610.6
2019-Feb-18 16:00S 52°24' W 069°18'9 9.5 230 / 161001.4 8.8 0.910.3
2019-Feb-18 15:00S 52°30' W 069°30'9 9.4 240 / 231001.327.0 8.6-1.710.4
2019-Feb-18 14:00S 52°36' W 069°42'1212.5 260 / 211000.7 7.7 2.510.0
2019-Feb-18 13:00S 52°42' W 070°00'1110.9 260 / 191000.4 6.7 2.6 9.4
2019-Feb-18 12:00S 52°42' W 070°18'1414.0 260 / 231000.227.0 6.8 1.9 9.2
2019-Feb-18 11:00S 52°54' W 070°30'1414.0 270 / 19998.9 6.7 3.2 9.1
2019-Feb-18 10:00S 53°06' W 070°42'7 7.2 270 / 21998.9 5.9 2.0 9.0
2019-Feb-18 09:00S 53°06' W 070°54'0 0.0 280 / 12997.927.0 5.4 0.7 9.2
2019-Feb-18 08:00S 53°06' W 070°54'0 0.0 150 / 4997.7 6.0 0.7 9.2
2019-Feb-18 07:00S 53°06' W 070°54'0 0.0 230 / 10997.3 6.7-1.0 9.2
2019-Feb-18 06:00S 53°06' W 070°54'0 0.0 280 / 8997.1 6.2 0.1 9.2
2019-Feb-18 05:00S 53°06' W 070°54'0 0.0 290 / 4997.1 6.0 0.4 9.2
2019-Feb-18 04:00S 53°06' W 070°54'0 0.0 260 / 6996.9 6.3 0.5 9.2
2019-Feb-18 03:00S 53°06' W 070°54'0 0.0 210 / 6997.0 6.2 1.1 9.2
2019-Feb-18 02:00S 53°06' W 070°54'0 0.0 290 / 8996.6 6.6 1.5 9.2
2019-Feb-18 01:00S 53°06' W 070°54'0 0.0 260 / 10996.5 6.9 0.5 9.1
2019-Feb-18 00:00S 53°06' W 070°54'0 0.0 290 / 6996.0 8.1 0.7 9.0
2019-Feb-17 23:00S 53°06' W 070°54'0 0.0 300 / 14996.2 7.2 1.5 9.1
2019-Feb-17 22:00S 53°06' W 070°54'0 0.0 300 / 8995.7 9.0 1.4 9.1
2019-Feb-17 21:00S 53°06' W 070°54'0 0.0 290 / 8995.8 9.0 0.7 9.2
2019-Feb-17 20:00S 53°06' W 070°54'0 0.0 320 / 12995.7 9.8-0.5 9.2
2019-Feb-17 19:00S 53°06' W 070°54'0 0.0 290 / 10996.5 10.0-0.8 9.2
2019-Feb-17 18:00S 53°06' W 070°54'0 0.0 290 / 12996.6 9.9-1.5 9.1
2019-Feb-17 17:00S 53°06' W 070°54'0 0.0 280 / 19996.6 9.8-3.2 9.1
2019-Feb-17 16:00S 53°06' W 070°54'0 0.0 280 / 16997.4 9.6-1.6 9.1
2019-Feb-17 15:00S 53°06' W 070°54'0 0.0 280 / 10997.2 9.4-2.3 9.1
2019-Feb-17 14:00S 53°06' W 070°54'0 0.0 260 / 4997.3 9.3-2.1 9.2
2019-Feb-17 13:00S 53°06' W 070°54'0 0.0 260 / 8997.0 8.4-1.7 9.2
2019-Feb-17 12:00S 53°06' W 070°54'0 0.0 270 / 8997.3 8.1-1.5 9.1
2019-Feb-17 11:00S 53°06' W 070°54'4 3.6 200 / 16996.9 8.3-1.5 9.0
2019-Feb-17 10:00S 53°06' W 070°48'7 7.0 200 / 12996.7 8.7 1.9 9.0
2019-Feb-17 09:00S 53°00' W 070°42'7 7.0 250 / 19995.7 8.6 5.0 9.1
2019-Feb-17 08:00S 52°54' W 070°48'0 0.0 300 / 29994.6 9.9 6.5 9.5
2019-Feb-17 07:00S 52°54' W 070°48'0 0.0 310 / 25993.8 9.6 6.6 9.5
2019-Feb-17 06:00S 52°54' W 070°48'0 0.0 320 / 21994.2 9.4 7.2 9.4
2019-Feb-17 05:00S 52°54' W 070°48'0 0.0 320 / 16994.6 8.6 7.0 9.6
2019-Feb-17 04:00S 52°54' W 070°48'0 0.0 330 / 14995.5 8.7 6.9 9.6
2019-Feb-17 03:00S 52°54' W 070°48'0 0.0 340 / 14995.9 8.7 7.0 9.6
2019-Feb-17 02:00S 52°54' W 070°48'0 0.0 320 / 14996.3 9.1 6.1 9.4
2019-Feb-17 01:00S 52°54' W 070°48'0 0.0 340 / 10996.4 10.8 3.0 9.3
2019-Feb-17 00:00S 52°54' W 070°48'0 0.0 280 / 10996.6 12.7 2.5 9.2
2019-Feb-16 23:00S 52°54' W 070°48'0 0.0 260 / 14997.2 11.9 1.6 9.3
2019-Feb-16 22:00S 52°54' W 070°48'0 0.0 250 / 17997.2 12.3 0.6 9.4
2019-Feb-16 21:00S 52°54' W 070°48'0 0.0 250 / 23998.0 12.6 0.4 9.5
2019-Feb-16 20:00S 52°54' W 070°48'0 0.0 240 / 27998.4 12.3-0.3 9.6
2019-Feb-16 19:00S 52°54' W 070°48'0 0.0 250 / 31998.7 12.5 0.1 9.7
2019-Feb-16 18:00S 52°54' W 070°48'0 0.0 260 / 33998.2 13.6-0.0 9.6
2019-Feb-16 17:00S 52°54' W 070°48'0 0.0 260 / 31998.1 12.9 1.3 9.5
2019-Feb-16 16:00S 52°54' W 070°48'0 0.0 270 / 33998.0 12.4 1.1 9.5
2019-Feb-16 15:00S 52°54' W 070°48'0 0.0 260 / 39996.5 12.5 0.9 9.6
2019-Feb-16 14:00S 52°54' W 070°48'0 0.0 260 / 41995.4 12.4 1.5 9.5
2019-Feb-16 13:00S 52°54' W 070°48'0 0.0 260 / 43994.9 11.4 3.5 9.5
2019-Feb-16 12:00S 52°54' W 070°48'0 0.0 270 / 37994.3 12.6 0.7 9.6
2019-Feb-16 11:00S 52°54' W 070°48'0 0.0 270 / 33993.6 12.1 3.2 9.4
2019-Feb-16 10:00S 52°54' W 070°48'0 0.0 280 / 31992.4 11.6 3.4 9.5
2019-Feb-16 09:00S 52°54' W 070°48'0 0.0 260 / 29992.0 9.8 4.8 9.7
2019-Feb-16 08:00S 52°54' W 070°48'0 0.0 270 / 37990.3 12.9 2.6 9.6
2019-Feb-16 07:00S 52°54' W 070°48'0 0.0 270 / 37989.5 12.5 2.1 9.8
2019-Feb-16 06:00S 52°54' W 070°48'0 0.0 270 / 45989.1 15.1 2.110.0
2019-Feb-16 05:00S 52°54' W 070°48'0 0.0 260 / 37988.7 13.4 3.610.1
2019-Feb-16 04:00S 52°54' W 070°48'0 0.0 270 / 47987.5 15.9 9.210.0
2019-Feb-16 03:00S 52°54' W 070°48'0 0.0 270 / 27987.2 14.510.910.1
2019-Feb-16 02:00S 52°54' W 070°48'0 0.0 280 / 31987.8 18.610.8 9.9
2019-Feb-16 01:00S 52°54' W 070°48'0 0.0 300 / 35988.5 17.5 9.8 9.9
2019-Feb-16 00:00S 52°54' W 070°48'0 0.0 300 / 33988.4 17.8 9.6 9.7
2019-Feb-15 23:00S 52°54' W 070°48'0 0.0 300 / 47987.8 17.910.1 9.6
2019-Feb-15 22:00S 52°54' W 070°48'0 0.0 300 / 54989.3 18.410.2 9.6
2019-Feb-15 21:00S 52°54' W 070°48'0 0.0 300 / 52989.6 18.310.3 9.6
2019-Feb-15 20:00S 52°54' W 070°48'0 0.0 300 / 52990.8 18.210.3 9.6
2019-Feb-15 19:00S 52°54' W 070°48'0 0.0 290 / 31991.9 18.210.9 9.5
2019-Feb-15 18:00S 52°54' W 070°48'0 0.0 300 / 35993.4 18.511.0 9.5
2019-Feb-15 17:00S 52°54' W 070°48'0 0.0 280 / 21995.0 17.011.0 9.4
2019-Feb-15 16:00S 52°54' W 070°48'1212.0 060 / 8996.6 10.8 9.5 9.4
2019-Feb-15 15:00S 53°06' W 070°48'4 3.6 030 / 14998.0 9.2 8.7 9.2
2019-Feb-15 14:00S 53°06' W 070°54'0 0.0 360 / 121000.1 8.7 6.6 9.3
2019-Feb-15 13:00S 53°06' W 070°54'0 0.0 360 / 141000.2 9.9 5.8 9.4
2019-Feb-15 12:00S 53°06' W 070°54'0 0.0 030 / 61000.7 10.5 5.4 9.4
2019-Feb-15 11:00S 53°06' W 070°54'0 0.0 290 / 61002.0 11.2 3.6 9.3
2019-Feb-15 10:00S 53°06' W 070°54'0 0.0 250 / 61002.4 11.5 1.6 9.3
2019-Feb-15 09:00S 53°06' W 070°54'0 0.0 050 / 41002.5 11.2 1.1 9.3
2019-Feb-15 08:00S 53°06' W 070°54'0 0.0 080 / 41002.9 11.0 1.6 9.3
2019-Feb-15 07:00S 53°06' W 070°54'0 0.0 040 / 81003.1 10.4 2.4 9.3
2019-Feb-15 06:00S 53°06' W 070°54'0 0.0 010 / 61003.7 10.6 1.7 9.3
2019-Feb-15 05:00S 53°06' W 070°54'0 0.0 050 / 81003.8 10.4 2.2 9.3
2019-Feb-15 04:00S 53°06' W 070°54'0 0.0 1003.8 10.3 1.4 9.4
2019-Feb-15 03:00S 53°06' W 070°54'0 0.0 260 / 81003.7 10.4 0.9 9.4
2019-Feb-15 02:00S 53°06' W 070°54'0 0.0 250 / 191002.8 10.6 0.6 9.2
2019-Feb-15 01:00S 53°06' W 070°54'0 0.0 260 / 251002.2 10.8 1.5 9.2
2019-Feb-15 00:00S 53°06' W 070°54'0 0.0 260 / 311001.1 11.2 1.8 9.2
2019-Feb-14 23:00S 53°06' W 070°54'0 0.0 260 / 311000.4 12.0 0.7 9.2
2019-Feb-14 22:00S 53°06' W 070°54'0 0.0 260 / 33999.5 12.3 0.9 9.2
2019-Feb-14 21:00S 53°06' W 070°54'0 0.0 260 / 39998.1 12.3 1.8 9.2
2019-Feb-14 20:00S 53°06' W 070°54'0 0.0 260 / 43997.5 12.6 2.4 9.3
2019-Feb-14 19:00S 53°06' W 070°54'0 0.0 270 / 33997.0 13.2 3.2 9.3
2019-Feb-14 18:00S 53°06' W 070°54'0 0.0 280 / 31997.0 12.7 3.1 9.3
2019-Feb-14 17:00S 53°06' W 070°54'0 0.0 280 / 31996.2 12.7 3.4 9.3
2019-Feb-14 16:00S 53°06' W 070°54'0 0.0 280 / 35995.6 12.2 3.9 9.3
2019-Feb-14 15:00S 53°06' W 070°54'0 0.0 270 / 31994.8 11.8 5.3 9.4
2019-Feb-14 14:00S 53°06' W 070°54'0 0.0 280 / 29994.1 12.0 7.9 9.3
2019-Feb-14 13:00S 53°06' W 070°54'0 0.0 290 / 33993.0 13.1 7.3 9.3
2019-Feb-14 12:00S 53°06' W 070°54'0 0.0 290 / 29992.9 12.8 7.5 9.2
2019-Feb-14 11:00S 53°06' W 070°54'0 0.0 280 / 19992.9 12.8 6.9 9.2
2019-Feb-14 10:00S 53°06' W 070°54'6 6.0 280 / 10993.4 12.6 5.2 9.1
2019-Feb-14 09:00S 53°12' W 070°54'0 0.0 270 / 23993.6 12.6 5.9 9.2
2019-Feb-14 08:00S 53°12' W 070°54'0 0.0 260 / 27994.1 12.3 6.8 9.1
2019-Feb-14 07:00S 53°12' W 070°54'0 0.0 270 / 21994.5 12.8 7.0 9.2
2019-Feb-14 06:00S 53°12' W 070°54'0 0.0 270 / 21995.0 12.9 6.4 9.2
2019-Feb-14 05:00S 53°12' W 070°54'0 0.0 280 / 12995.4 12.7 5.9 9.2
2019-Feb-14 04:00S 53°12' W 070°54'0 0.0 260 / 17996.1 12.8 5.7 9.2
2019-Feb-14 03:00S 53°12' W 070°54'0 0.0 260 / 23997.1 13.2 5.0 9.2
2019-Feb-14 02:00S 53°12' W 070°54'0 0.0 270 / 33996.9 13.3 5.5 9.2
2019-Feb-14 01:00S 53°12' W 070°54'0 0.0 270 / 23997.4 15.2 5.3 9.2
2019-Feb-14 00:00S 53°12' W 070°54'0 0.0 260 / 19997.5 15.3 4.9 9.3
2019-Feb-13 23:00S 53°12' W 070°54'0 0.0 290 / 12998.0 16.1 5.4 9.3
2019-Feb-13 22:00S 53°12' W 070°54'0 0.0 270 / 23998.6 16.6 3.3 9.2
2019-Feb-13 21:00S 53°12' W 070°54'0 0.0 300 / 21999.3 16.1 5.4 9.3
2019-Feb-13 20:00S 53°12' W 070°54'0 0.0 300 / 161000.0 15.7 6.1 9.2
2019-Feb-13 19:00S 53°12' W 070°54'0 0.0 310 / 171000.7 15.2 6.2 9.2
2019-Feb-13 18:00S 53°12' W 070°54'0 0.0 310 / 191001.6 15.2 5.9 9.2
2019-Feb-13 17:00S 53°12' W 070°54'0 0.0 300 / 161002.6 14.6 5.5 9.2
2019-Feb-13 16:00S 53°12' W 070°54'0 0.0 300 / 231003.2 14.8 5.8 9.2
2019-Feb-13 15:00S 53°12' W 070°54'0 0.0 320 / 211003.7 14.2 5.7 9.2
2019-Feb-13 14:00S 53°12' W 070°54'0 0.0 290 / 161004.9 13.0 5.9 9.1
2019-Feb-13 13:00S 53°12' W 070°54'0 0.0 280 / 161005.8 12.0 5.5 9.1
2019-Feb-13 12:00S 53°12' W 070°54'0 0.0 330 / 81006.3 11.7 5.7 9.1
2019-Feb-13 11:00S 53°12' W 070°54'0 0.0 360 / 81006.9 10.1 4.9 9.1
2019-Feb-13 10:00S 53°12' W 070°54'0 0.0 300 / 141007.4 10.4 4.3 9.1
2019-Feb-13 09:00S 53°12' W 070°54'0 0.0 280 / 41008.0 10.4 3.8 9.1
2019-Feb-13 08:00S 53°12' W 070°54'6 6.0 270 / 81008.5 10.1 3.8 9.0
2019-Feb-13 07:00S 53°06' W 070°54'0 0.0 340 / 41009.2 9.5 2.2 9.3
2019-Feb-13 06:00S 53°06' W 070°54'0 0.0 220 / 101009.4 8.7 1.1 9.3
2019-Feb-13 05:00S 53°06' W 070°54'0 0.0 220 / 101009.9 9.2 0.7 9.3
2019-Feb-13 04:00S 53°06' W 070°54'0 0.0 230 / 101010.0 9.6 0.6 9.4
2019-Feb-13 03:00S 53°06' W 070°54'0 0.0 280 / 121009.7 8.7 1.1 9.4
2019-Feb-13 02:00S 53°06' W 070°54'0 0.0 260 / 81009.8 10.0 2.0 9.4
2019-Feb-13 01:00S 53°06' W 070°54'0 0.0 240 / 101009.2 11.5 2.3 9.5
2019-Feb-13 00:00S 53°06' W 070°54'0 0.0 230 / 191008.1 12.8 2.9 9.5
2019-Feb-12 23:00S 53°06' W 070°54'0 0.0 220 / 121008.0 13.7 4.6 9.5
2019-Feb-12 22:00S 53°06' W 070°54'0 0.0 250 / 141006.7 15.0 6.5 9.4
2019-Feb-12 21:00S 53°06' W 070°54'0 0.0 260 / 191005.3 16.0 6.7 9.4
2019-Feb-12 20:00S 53°06' W 070°54'0 0.0 260 / 291004.3 16.0 6.6 9.4
2019-Feb-12 19:00S 53°06' W 070°54'0 0.0 260 / 251004.9 15.3 6.4 9.4
2019-Feb-12 18:00S 53°06' W 070°54'0 0.0 270 / 251004.9 15.0 6.9 9.3
2019-Feb-12 17:00S 53°06' W 070°54'0 0.0 280 / 251005.5 14.2 6.1 9.4
2019-Feb-12 16:00S 53°06' W 070°54'0 0.0 270 / 141005.6 14.9 5.9 9.3
2019-Feb-12 15:00S 53°06' W 070°54'0 0.0 290 / 121005.5 12.1 5.7 9.3
2019-Feb-12 14:00S 53°06' W 070°54'0 0.0 310 / 171006.1 11.5 4.5 9.3
2019-Feb-12 13:00S 53°06' W 070°54'0 0.0 310 / 211006.4 11.5 3.9 9.3
2019-Feb-12 12:00S 53°06' W 070°54'0 0.0 360 / 81007.1 10.9 3.7 9.4
2019-Feb-12 11:00S 53°06' W 070°54'0 0.0 330 / 81008.6 10.8 3.4 9.3
2019-Feb-12 10:00S 53°06' W 070°54'6 6.0 320 / 161009.7 9.5 5.3 9.2
2019-Feb-12 09:00S 53°12' W 070°54'0 0.0 320 / 141011.3 10.3 3.4 9.2
2019-Feb-12 08:00S 53°12' W 070°54'0 0.0 300 / 171012.5 10.2 3.7 9.1
2019-Feb-12 07:00S 53°12' W 070°54'0 0.0 270 / 101013.6 10.1 3.7 9.1
2019-Feb-12 06:00S 53°12' W 070°54'0 0.0 270 / 161014.5 10.2 3.7 9.2
2019-Feb-12 05:00S 53°12' W 070°54'0 0.0 270 / 191015.4 10.5 3.5 9.2
2019-Feb-12 04:00S 53°12' W 070°54'0 0.0 270 / 171016.1 10.4 3.3 9.2
2019-Feb-12 03:00S 53°12' W 070°54'0 0.0 250 / 141017.0 10.9 2.2 9.2
2019-Feb-12 02:00S 53°12' W 070°54'0 0.0 240 / 231018.1 10.8 2.7 9.2
2019-Feb-12 01:00S 53°12' W 070°54'0 0.0 250 / 191018.8 10.7 3.3 9.2
2019-Feb-12 00:00S 53°12' W 070°54'0 0.0 250 / 171019.0 10.7 2.6 9.3
2019-Feb-11 23:00S 53°12' W 070°54'0 0.0 270 / 171019.3 10.7 2.8 9.3
2019-Feb-11 22:00S 53°12' W 070°54'0 0.0 270 / 211019.4 11.0 3.0 9.3
2019-Feb-11 21:00S 53°12' W 070°54'0 0.0 270 / 171019.7 11.4 2.7 9.3
2019-Feb-11 20:00S 53°12' W 070°54'0 0.0 270 / 141019.7 11.2 2.2 9.3
2019-Feb-11 19:00S 53°12' W 070°54'0 0.0 270 / 101020.1 10.6 1.5 9.3
2019-Feb-11 18:00S 53°12' W 070°54'0 0.0 260 / 101020.6 9.6 0.8 9.3
2019-Feb-11 17:00S 53°12' W 070°54'0 0.0 240 / 161020.9 9.1 0.4 9.3
2019-Feb-11 16:00S 53°12' W 070°54'0 0.0 280 / 81021.4 9.3 0.9 9.3
2019-Feb-11 15:00S 53°12' W 070°54'0 0.0 260 / 81022.1 8.8 1.0 9.3
2019-Feb-11 14:00S 53°12' W 070°54'0 0.0 260 / 161021.8 8.2 0.3 9.3
2019-Feb-11 13:00S 53°12' W 070°54'0 0.0 260 / 81021.5 8.0 0.3 9.3
2019-Feb-11 12:00S 53°12' W 070°54'0 0.0 240 / 121021.6 7.5 0.3 9.2
2019-Feb-11 11:00S 53°12' W 070°54'0 0.0 220 / 121021.1 7.4-0.1 9.2
2019-Feb-11 10:00S 53°12' W 070°54'6 6.0 250 / 41020.3 7.1-0.0 9.2
2019-Feb-11 09:00S 53°06' W 070°54'0 0.0 260 / 81020.5 6.5-0.3 9.2
2019-Feb-11 08:00S 53°06' W 070°54'0 0.0 250 / 121020.4 6.5-0.3 9.2
2019-Feb-11 07:00S 53°06' W 070°54'0 0.0 210 / 41019.9 5.9-0.8 9.2
2019-Feb-11 06:00S 53°06' W 070°54'0 0.0 280 / 41019.5 5.7-1.1 9.2
2019-Feb-11 05:00S 53°06' W 070°54'0 0.0 230 / 61018.9 6.3-0.9 9.2
2019-Feb-11 04:00S 53°06' W 070°54'0 0.0 260 / 81018.7 6.1-0.9 9.2
2019-Feb-11 03:00S 53°06' W 070°54'0 0.0 250 / 21018.1 6.6-0.6 9.2
2019-Feb-11 02:00S 53°06' W 070°54'0 0.0 260 / 81017.1 6.7-1.4 9.2
2019-Feb-11 01:00S 53°06' W 070°54'0 0.0 200 / 121016.0 7.8-0.8 9.2
2019-Feb-11 00:00S 53°06' W 070°54'0 0.0 210 / 211014.5 8.4-0.9 9.3
2019-Feb-10 23:00S 53°06' W 070°54'0 0.0 220 / 161013.5 9.6-1.6 9.3
2019-Feb-10 22:00S 53°06' W 070°54'0 0.0 210 / 211012.2 9.7-1.8 9.3
2019-Feb-10 21:00S 53°06' W 070°54'7 7.0 190 / 211010.9 9.5-1.4 9.2
2019-Feb-10 20:00S 53°12' W 070°48'4 3.6 200 / 211009.8 8.6 0.5 9.2
2019-Feb-10 19:00S 53°12' W 070°54'0 0.0 190 / 211008.8 8.8 0.3 9.1
2019-Feb-10 18:00S 53°12' W 070°54'0 0.0 190 / 271007.1 8.3-1.0 9.0
2019-Feb-10 17:00S 53°12' W 070°54'0 0.0 180 / 251006.6 7.9-2.2 9.0
2019-Feb-10 16:00S 53°12' W 070°54'0 0.0 200 / 271005.6 7.5-2.3 8.9
2019-Feb-10 15:00S 53°12' W 070°54'0 0.0 200 / 211004.9 7.0-0.8 9.0
2019-Feb-10 14:00S 53°12' W 070°54'0 0.0 220 / 271003.5 7.2-1.2 8.9
2019-Feb-10 13:00S 53°12' W 070°54'0 0.0 220 / 291002.2 6.8 0.2 8.9
2019-Feb-10 12:00S 53°12' W 070°54'0 0.0 220 / 211000.4 7.4 2.3 8.9
2019-Feb-10 11:00S 53°12' W 070°54'0 0.0 230 / 12999.2 7.6 3.2 8.9
2019-Feb-10 10:00S 53°12' W 070°54'0 0.0 270 / 16997.7 7.6 2.7 8.9
2019-Feb-10 09:00S 53°12' W 070°54'0 0.0 240 / 10996.5 8.0 1.6 9.0
2019-Feb-10 08:00S 53°12' W 070°54'0 0.0 270 / 8995.8 7.8 1.9 9.0
2019-Feb-10 07:00S 53°12' W 070°54'0 0.0 240 / 14995.0 7.9 1.3 9.0
2019-Feb-10 06:00S 53°12' W 070°54'   250 / 12994.3 7.5 1.6 9.1

Dump ship's entire track history